createdAt,value
2023-03-12T00:00:09.397Z,65.37
2023-03-12T00:01:09.393Z,64.59
2023-03-12T00:02:09.395Z,64.43
2023-03-12T00:03:09.385Z,64.89
2023-03-12T00:04:09.461Z,64.73
2023-03-12T00:05:09.373Z,64.50
2023-03-12T00:06:10.962Z,65.15
2023-03-12T00:07:10.334Z,65.14
2023-03-12T00:08:09.335Z,65.06
2023-03-12T00:09:09.315Z,64.73
2023-03-12T00:10:09.304Z,64.51
2023-03-12T00:11:09.294Z,64.35
2023-03-12T00:12:09.286Z,65.00
2023-03-12T00:13:09.289Z,65.35
2023-03-12T00:14:09.271Z,65.54
2023-03-12T00:15:09.352Z,65.11
2023-03-12T00:16:09.308Z,65.41
2023-03-12T00:17:09.255Z,64.62
2023-03-12T00:18:09.243Z,64.46
2023-03-12T00:19:09.224Z,64.35
2023-03-12T00:20:09.225Z,64.53
2023-03-12T00:21:09.209Z,64.63
2023-03-12T00:22:09.198Z,64.79
2023-03-12T00:23:09.201Z,64.66
2023-03-12T00:24:09.186Z,63.92
2023-03-12T00:25:09.170Z,63.60
2023-03-12T00:26:09.160Z,63.93
2023-03-12T00:27:09.179Z,64.39
2023-03-12T00:28:09.160Z,64.24
2023-03-12T00:29:09.137Z,63.77
2023-03-12T00:30:09.125Z,64.67
2023-03-12T00:31:09.161Z,64.38
2023-03-12T00:32:09.106Z,64.58
2023-03-12T00:33:09.113Z,64.53
2023-03-12T00:34:09.090Z,64.06
2023-03-12T00:35:09.083Z,64.76
2023-03-12T00:36:09.067Z,64.34
2023-03-12T00:37:09.063Z,64.23
2023-03-12T00:38:09.063Z,64.42
2023-03-12T00:39:09.048Z,64.61
2023-03-12T00:40:09.036Z,64.33
2023-03-12T00:41:09.031Z,64.49
2023-03-12T00:42:09.017Z,64.61
2023-03-12T00:43:09.021Z,64.71
2023-03-12T00:44:09.020Z,64.56
2023-03-12T00:45:08.994Z,64.63
2023-03-12T00:46:08.991Z,64.91
2023-03-12T00:47:08.973Z,65.06
2023-03-12T00:48:08.984Z,64.17
2023-03-12T00:49:08.953Z,64.39
2023-03-12T00:50:08.946Z,64.58
2023-03-12T00:51:08.935Z,64.19
2023-03-12T00:52:08.945Z,63.89
2023-03-12T00:53:08.937Z,64.01
2023-03-12T00:54:08.913Z,64.31
2023-03-12T00:55:08.898Z,64.53
2023-03-12T00:56:08.907Z,64.66
2023-03-12T00:57:08.880Z,64.69
2023-03-12T00:58:08.884Z,64.17
2023-03-12T00:59:08.873Z,64.26
2023-03-12T01:00:08.856Z,64.05
2023-03-12T01:01:08.869Z,64.73
2023-03-12T01:02:08.843Z,64.93
2023-03-12T01:03:08.840Z,64.47
2023-03-12T01:04:08.842Z,64.16
2023-03-12T01:05:08.812Z,64.04
2023-03-12T01:06:08.814Z,63.97
2023-03-12T01:07:08.801Z,63.92
2023-03-12T01:08:08.804Z,64.01
2023-03-12T01:09:08.779Z,64.53
2023-03-12T01:10:08.774Z,63.47
2023-03-12T01:11:08.776Z,63.02
2023-03-12T01:12:08.757Z,62.94
2023-03-12T01:13:08.759Z,62.49
2023-03-12T01:14:08.788Z,62.84
2023-03-12T01:15:08.734Z,63.45
2023-03-12T01:16:08.757Z,63.73
2023-03-12T01:17:08.712Z,63.40
2023-03-12T01:18:08.750Z,63.08
2023-03-12T01:19:08.693Z,63.15
2023-03-12T01:20:08.689Z,62.66
2023-03-12T01:21:08.680Z,62.78
2023-03-12T01:22:08.670Z,62.87
2023-03-12T01:23:08.679Z,62.61
2023-03-12T01:24:08.656Z,62.87
2023-03-12T01:25:08.647Z,63.41
2023-03-12T01:26:08.640Z,63.24
2023-03-12T01:27:08.629Z,63.00
2023-03-12T01:28:08.629Z,62.91
2023-03-12T01:29:08.619Z,63.42
2023-03-12T01:30:08.596Z,63.78
2023-03-12T01:31:08.634Z,63.76
2023-03-12T01:32:08.581Z,63.98
2023-03-12T01:33:08.593Z,63.73
2023-03-12T01:34:08.557Z,63.85
2023-03-12T01:35:08.638Z,63.48
2023-03-12T01:36:08.591Z,63.69
2023-03-12T01:37:08.532Z,63.87
2023-03-12T01:38:08.539Z,63.83
2023-03-12T01:39:08.519Z,63.82
2023-03-12T01:40:08.512Z,63.71
2023-03-12T01:41:08.499Z,63.97
2023-03-12T01:42:08.490Z,63.83
2023-03-12T01:43:08.504Z,63.87
2023-03-12T01:44:08.474Z,63.89
2023-03-12T01:45:08.467Z,63.97
2023-03-12T01:46:08.493Z,64.17
2023-03-12T01:47:08.435Z,64.05
2023-03-12T01:48:09.451Z,63.91
2023-03-12T01:49:08.425Z,63.93
2023-03-12T01:50:08.435Z,63.70
2023-03-12T01:51:08.416Z,63.64
2023-03-12T01:52:08.411Z,63.77
2023-03-12T01:53:08.399Z,63.99
2023-03-12T01:54:08.429Z,64.06
2023-03-12T01:55:08.373Z,63.90
2023-03-12T01:56:08.371Z,63.98
2023-03-12T01:57:08.356Z,63.59
2023-03-12T01:58:08.345Z,63.63
2023-03-12T01:59:08.348Z,63.89
2023-03-12T02:00:08.328Z,63.70
2023-03-12T02:01:08.369Z,63.49
2023-03-12T02:02:08.306Z,63.56
2023-03-12T02:03:08.298Z,63.49
2023-03-12T02:04:08.377Z,63.46
2023-03-12T02:05:08.280Z,63.22
2023-03-12T02:06:08.269Z,63.31
2023-03-12T02:07:08.264Z,63.70
2023-03-12T02:08:08.249Z,63.74
2023-03-12T02:09:08.250Z,63.79
2023-03-12T02:10:08.236Z,63.52
2023-03-12T02:11:08.225Z,63.15
2023-03-12T02:12:08.219Z,62.88
2023-03-12T02:13:08.207Z,62.80
2023-03-12T02:14:08.212Z,63.11
2023-03-12T02:15:08.189Z,62.95
2023-03-12T02:16:08.196Z,62.40
2023-03-12T02:17:08.169Z,62.63
2023-03-12T02:18:08.176Z,62.75
2023-03-12T02:19:08.165Z,63.17
2023-03-12T02:20:08.145Z,63.09
2023-03-12T02:21:08.137Z,62.77
2023-03-12T02:22:08.138Z,62.71
2023-03-12T02:23:08.123Z,62.87
2023-03-12T02:24:08.125Z,62.86
2023-03-12T02:25:08.104Z,62.88
2023-03-12T02:26:08.094Z,62.90
2023-03-12T02:27:08.080Z,62.69
2023-03-12T02:28:08.073Z,62.61
2023-03-12T02:29:08.079Z,62.93
2023-03-12T02:30:08.061Z,63.15
2023-03-12T02:31:08.052Z,63.00
2023-03-12T02:32:08.124Z,62.64
2023-03-12T02:33:08.036Z,62.73
2023-03-12T02:34:08.031Z,63.13
2023-03-12T02:35:08.013Z,63.18
2023-03-12T02:36:08.058Z,62.58
2023-03-12T02:37:08.015Z,62.70
2023-03-12T02:38:07.984Z,63.11
2023-03-12T02:39:07.984Z,63.16
2023-03-12T02:40:07.962Z,63.39
2023-03-12T02:41:07.961Z,63.55
2023-03-12T02:42:07.948Z,63.36
2023-03-12T02:43:07.935Z,63.23
2023-03-12T02:44:07.949Z,63.01
2023-03-12T02:45:07.924Z,62.97
2023-03-12T02:46:08.096Z,62.89
2023-03-12T02:47:07.898Z,62.62
2023-03-12T02:48:07.888Z,62.48
2023-03-12T02:49:07.893Z,62.54
2023-03-12T02:50:07.875Z,62.69
2023-03-12T02:51:07.868Z,62.34
2023-03-12T02:52:07.854Z,62.74
2023-03-12T02:53:07.846Z,63.08
2023-03-12T02:54:07.849Z,63.33
2023-03-12T02:55:07.830Z,63.46
2023-03-12T02:56:07.818Z,63.40
2023-03-12T02:57:07.817Z,63.55
2023-03-12T02:58:07.805Z,63.59
2023-03-12T02:59:07.805Z,63.79
2023-03-12T03:00:07.805Z,63.84
2023-03-12T03:01:07.798Z,63.91
2023-03-12T03:02:07.766Z,64.16
2023-03-12T03:03:07.754Z,63.92
2023-03-12T03:04:07.854Z,63.68
2023-03-12T03:05:07.750Z,63.88
2023-03-12T03:06:07.732Z,63.82
2023-03-12T03:07:07.718Z,63.69
2023-03-12T03:08:07.706Z,63.66
2023-03-12T03:09:07.709Z,64.04
2023-03-12T03:10:07.687Z,63.94
2023-03-12T03:11:07.678Z,63.68
2023-03-12T03:12:07.674Z,63.62
2023-03-12T03:13:07.658Z,63.33
2023-03-12T03:14:07.658Z,63.20
2023-03-12T03:15:07.649Z,63.45
2023-03-12T03:16:07.660Z,63.49
2023-03-12T03:17:07.621Z,63.31
2023-03-12T03:18:07.616Z,63.41
2023-03-12T03:19:07.621Z,63.43
2023-03-12T03:20:07.597Z,63.88
2023-03-12T03:21:07.596Z,63.63
2023-03-12T03:22:07.579Z,63.48
2023-03-12T03:23:07.572Z,63.78
2023-03-12T03:24:07.577Z,63.57
2023-03-12T03:25:07.554Z,63.15
2023-03-12T03:26:07.546Z,63.04
2023-03-12T03:27:07.535Z,63.50
2023-03-12T03:28:07.528Z,63.73
2023-03-12T03:29:07.529Z,63.75
2023-03-12T03:30:07.513Z,63.76
2023-03-12T03:31:07.534Z,63.83
2023-03-12T03:32:07.490Z,63.84
2023-03-12T03:33:07.481Z,63.87
2023-03-12T03:34:07.486Z,63.55
2023-03-12T03:35:07.467Z,63.96
2023-03-12T03:36:07.455Z,63.75
2023-03-12T03:37:07.449Z,64.04
2023-03-12T03:38:07.437Z,63.99
2023-03-12T03:39:07.443Z,63.97
2023-03-12T03:40:07.418Z,63.97
2023-03-12T03:41:07.411Z,63.81
2023-03-12T03:42:07.400Z,63.90
2023-03-12T03:43:07.394Z,64.05
2023-03-12T03:44:07.391Z,63.86
2023-03-12T03:45:07.395Z,63.84
2023-03-12T03:46:07.392Z,63.47
2023-03-12T03:47:07.353Z,63.73
2023-03-12T03:48:07.348Z,63.91
2023-03-12T03:49:07.345Z,63.69
2023-03-12T03:50:07.327Z,63.96
2023-03-12T03:51:07.317Z,63.71
2023-03-12T03:52:07.312Z,63.73
2023-03-12T03:53:07.303Z,63.69
2023-03-12T03:54:07.308Z,63.42
2023-03-12T03:55:07.286Z,63.78
2023-03-12T03:56:07.288Z,63.77
2023-03-12T03:57:07.287Z,63.74
2023-03-12T03:58:07.263Z,63.66
2023-03-12T03:59:07.264Z,63.20
2023-03-12T04:00:07.242Z,63.23
2023-03-12T04:01:07.239Z,63.51
2023-03-12T04:02:07.226Z,63.56
2023-03-12T04:03:07.270Z,63.73
2023-03-12T04:04:07.215Z,63.46
2023-03-12T04:05:07.191Z,63.23
2023-03-12T04:06:07.194Z,63.21
2023-03-12T04:07:07.181Z,63.33
2023-03-12T04:08:07.171Z,63.41
2023-03-12T04:09:07.171Z,63.24
2023-03-12T04:10:07.168Z,63.12
2023-03-12T04:11:07.142Z,62.62
2023-03-12T04:12:07.131Z,62.59
2023-03-12T04:13:07.125Z,63.03
2023-03-12T04:14:07.122Z,62.58
2023-03-12T04:15:07.104Z,63.03
2023-03-12T04:16:07.258Z,62.65
2023-03-12T04:17:07.091Z,62.68
2023-03-12T04:18:07.141Z,62.92
2023-03-12T04:19:07.094Z,62.87
2023-03-12T04:20:07.064Z,62.51
2023-03-12T04:21:07.058Z,62.68
2023-03-12T04:22:07.051Z,62.38
2023-03-12T04:23:07.046Z,62.83
2023-03-12T04:24:07.040Z,62.24
2023-03-12T04:25:07.031Z,62.13
2023-03-12T04:26:07.015Z,61.77
2023-03-12T04:27:07.012Z,62.01
2023-03-12T04:28:06.994Z,62.03
2023-03-12T04:29:07.018Z,62.75
2023-03-12T04:30:06.982Z,61.72
2023-03-12T04:31:07.169Z,61.30
2023-03-12T04:32:06.966Z,61.32
2023-03-12T04:33:06.956Z,61.51
2023-03-12T04:34:06.954Z,61.70
2023-03-12T04:35:06.947Z,61.03
2023-03-12T04:36:06.953Z,61.10
2023-03-12T04:37:06.917Z,61.30
2023-03-12T04:38:06.913Z,60.91
2023-03-12T04:39:06.916Z,61.03
2023-03-12T04:40:06.889Z,61.07
2023-03-12T04:41:06.881Z,61.00
2023-03-12T04:42:06.877Z,60.73
2023-03-12T04:43:06.864Z,60.81
2023-03-12T04:44:06.866Z,60.74
2023-03-12T04:45:06.858Z,60.72
2023-03-12T04:46:06.846Z,60.92
2023-03-12T04:47:06.836Z,61.55
2023-03-12T04:48:06.831Z,61.23
2023-03-12T04:49:06.880Z,61.45
2023-03-12T04:50:06.808Z,61.45
2023-03-12T04:51:38.706Z,61.61
2023-03-12T04:52:06.793Z,59.99
2023-03-12T04:53:06.798Z,60.81
2023-03-12T04:54:06.784Z,61.13
2023-03-12T04:55:06.763Z,61.16
2023-03-12T04:56:06.743Z,62.60
2023-03-12T04:57:07.740Z,61.83
2023-03-12T04:58:07.734Z,61.40
2023-03-12T04:59:06.742Z,61.37
2023-03-12T05:00:06.721Z,62.15
2023-03-12T05:01:06.706Z,62.28
2023-03-12T05:02:06.698Z,62.18
2023-03-12T05:03:06.717Z,62.04
2023-03-12T05:04:06.697Z,61.79
2023-03-12T05:05:06.673Z,62.40
2023-03-12T05:06:06.661Z,62.39
2023-03-12T05:07:06.655Z,62.57
2023-03-12T05:08:06.644Z,62.11
2023-03-12T05:09:06.639Z,61.98
2023-03-12T05:10:06.647Z,62.38
2023-03-12T05:11:06.619Z,62.58
2023-03-12T05:12:06.613Z,62.56
2023-03-12T05:13:06.608Z,62.30
2023-03-12T05:14:06.631Z,62.15
2023-03-12T05:15:06.581Z,61.73
2023-03-12T05:16:06.593Z,61.94
2023-03-12T05:17:06.587Z,62.41
2023-03-12T05:18:06.567Z,62.84
2023-03-12T05:19:06.558Z,62.65
2023-03-12T05:20:06.560Z,62.60
2023-03-12T05:21:06.531Z,62.63
2023-03-12T05:22:06.527Z,63.08
2023-03-12T05:23:06.516Z,63.00
2023-03-12T05:24:06.513Z,62.90
2023-03-12T05:25:06.504Z,63.05
2023-03-12T05:26:06.497Z,62.87
2023-03-12T05:27:06.478Z,63.11
2023-03-12T05:28:06.471Z,62.84
2023-03-12T05:29:06.457Z,63.06
2023-03-12T05:30:06.460Z,63.05
2023-03-12T05:31:06.454Z,62.96
2023-03-12T05:32:06.427Z,62.96
2023-03-12T05:33:06.417Z,62.61
2023-03-12T05:34:06.434Z,62.96
2023-03-12T05:35:06.410Z,63.01
2023-03-12T05:36:06.438Z,62.87
2023-03-12T05:37:06.407Z,63.03
2023-03-12T05:38:06.372Z,63.16
2023-03-12T05:39:06.367Z,62.83
2023-03-12T05:40:06.366Z,63.29
2023-03-12T05:41:06.363Z,63.23
2023-03-12T05:42:06.365Z,63.30
2023-03-12T05:43:06.356Z,63.20
2023-03-12T05:44:06.330Z,63.35
2023-03-12T05:45:06.326Z,63.30
2023-03-12T05:46:06.376Z,63.05
2023-03-12T05:47:06.341Z,63.14
2023-03-12T05:48:06.283Z,63.23
2023-03-12T05:49:06.276Z,63.39
2023-03-12T05:50:06.281Z,63.46
2023-03-12T05:51:06.258Z,63.28
2023-03-12T05:52:06.245Z,63.54
2023-03-12T05:53:06.238Z,63.40
2023-03-12T05:54:06.228Z,63.44
2023-03-12T05:55:06.232Z,63.22
2023-03-12T05:56:06.219Z,63.49
2023-03-12T05:57:06.207Z,63.48
2023-03-12T05:58:06.200Z,63.18
2023-03-12T05:59:06.176Z,63.44
2023-03-12T06:00:06.199Z,63.45
2023-03-12T06:01:06.164Z,63.24
2023-03-12T06:02:06.282Z,63.21
2023-03-12T06:03:06.168Z,63.13
2023-03-12T06:04:06.137Z,63.08
2023-03-12T06:05:06.142Z,63.12
2023-03-12T06:06:06.140Z,62.94
2023-03-12T06:07:06.133Z,63.02
2023-03-12T06:08:06.119Z,62.93
2023-03-12T06:09:06.088Z,62.78
2023-03-12T06:10:06.089Z,62.86
2023-03-12T06:11:06.072Z,62.90
2023-03-12T06:12:06.086Z,63.25
2023-03-12T06:13:06.062Z,63.29
2023-03-12T06:14:06.053Z,63.28
2023-03-12T06:15:06.048Z,62.96
2023-03-12T06:16:06.032Z,63.20
2023-03-12T06:17:06.019Z,63.00
2023-03-12T06:18:06.009Z,63.00
2023-03-12T06:19:06.001Z,63.28
2023-03-12T06:20:06.004Z,63.50
2023-03-12T06:21:05.981Z,63.36
2023-03-12T06:22:05.977Z,63.27
2023-03-12T06:23:06.053Z,63.28
2023-03-12T06:24:05.953Z,63.63
2023-03-12T06:25:05.964Z,63.31
2023-03-12T06:26:05.934Z,63.17
2023-03-12T06:27:05.932Z,63.25
2023-03-12T06:28:05.921Z,63.32
2023-03-12T06:29:05.916Z,63.29
2023-03-12T06:30:05.914Z,63.39
2023-03-12T06:31:05.942Z,63.37
2023-03-12T06:32:05.889Z,63.73
2023-03-12T06:33:05.879Z,63.36
2023-03-12T06:34:05.873Z,63.28
2023-03-12T06:35:05.877Z,63.21
2023-03-12T06:36:05.855Z,63.11
2023-03-12T06:37:05.848Z,63.31
2023-03-12T06:38:05.828Z,63.20
2023-03-12T06:39:05.824Z,63.54
2023-03-12T06:40:05.829Z,63.15
2023-03-12T06:41:05.807Z,63.25
2023-03-12T06:42:05.802Z,63.08
2023-03-12T06:43:05.794Z,63.02
2023-03-12T06:44:05.780Z,63.28
2023-03-12T06:45:05.781Z,63.39
2023-03-12T06:46:05.776Z,63.19
2023-03-12T06:47:05.760Z,63.18
2023-03-12T06:48:05.742Z,63.37
2023-03-12T06:49:05.742Z,63.39
2023-03-12T06:50:05.739Z,63.19
2023-03-12T06:51:05.728Z,62.96
2023-03-12T06:52:05.710Z,63.00
2023-03-12T06:53:05.704Z,63.20
2023-03-12T06:54:05.693Z,63.21
2023-03-12T06:55:05.696Z,63.15
2023-03-12T06:56:05.672Z,63.41
2023-03-12T06:57:05.669Z,63.48
2023-03-12T06:58:05.656Z,63.43
2023-03-12T06:59:05.645Z,63.37
2023-03-12T07:00:05.646Z,63.26
2023-03-12T07:01:05.618Z,63.06
2023-03-12T07:02:06.640Z,63.19
2023-03-12T07:03:05.623Z,63.31
2023-03-12T07:04:05.608Z,63.22
2023-03-12T07:05:05.626Z,63.08
2023-03-12T07:06:05.591Z,63.11
2023-03-12T07:07:05.581Z,63.08
2023-03-12T07:08:05.573Z,63.37
2023-03-12T07:09:05.571Z,63.77
2023-03-12T07:10:05.571Z,63.30
2023-03-12T07:11:05.549Z,63.36
2023-03-12T07:12:05.540Z,63.41
2023-03-12T07:13:05.538Z,63.40
2023-03-12T07:14:05.515Z,63.60
2023-03-12T07:15:05.520Z,63.55
2023-03-12T07:16:05.549Z,64.05
2023-03-12T07:17:05.487Z,63.65
2023-03-12T07:18:05.516Z,63.67
2023-03-12T07:19:05.479Z,63.55
2023-03-12T07:20:05.495Z,63.51
2023-03-12T07:21:05.455Z,63.65
2023-03-12T07:22:05.448Z,63.38
2023-03-12T07:23:05.441Z,63.15
2023-03-12T07:24:05.433Z,63.21
2023-03-12T07:25:05.439Z,62.92
2023-03-12T07:26:05.455Z,62.70
2023-03-12T07:27:05.405Z,62.92
2023-03-12T07:28:05.398Z,63.32
2023-03-12T07:29:05.415Z,63.71
2023-03-12T07:30:05.397Z,63.79
2023-03-12T07:31:05.452Z,63.99
2023-03-12T07:32:05.364Z,63.38
2023-03-12T07:33:05.482Z,63.37
2023-03-12T07:34:05.597Z,63.83
2023-03-12T07:35:05.360Z,63.38
2023-03-12T07:36:05.476Z,63.21
2023-03-12T07:37:05.323Z,63.53
2023-03-12T07:38:05.398Z,63.69
2023-03-12T07:39:05.318Z,63.28
2023-03-12T07:40:05.344Z,63.05
2023-03-12T07:41:05.360Z,63.07
2023-03-12T07:42:05.287Z,63.21
2023-03-12T07:43:05.263Z,63.31
2023-03-12T07:44:05.294Z,63.37
2023-03-12T07:45:05.319Z,63.11
2023-03-12T07:46:05.248Z,62.98
2023-03-12T07:47:22.357Z,63.04
2023-03-12T07:48:07.263Z,63.16
2023-03-12T07:49:05.213Z,62.79
2023-03-12T07:50:05.237Z,62.86
2023-03-12T07:51:05.208Z,63.12
2023-03-12T07:52:05.203Z,62.93
2023-03-12T07:53:05.181Z,62.84
2023-03-12T07:54:05.174Z,62.92
2023-03-12T07:55:05.261Z,63.10
2023-03-12T07:56:05.241Z,63.16
2023-03-12T07:57:05.309Z,63.07
2023-03-12T07:58:05.181Z,63.03
2023-03-12T07:59:05.311Z,63.21
2023-03-12T08:00:05.155Z,62.94
2023-03-12T08:01:05.137Z,62.98
2023-03-12T08:02:05.168Z,62.54
2023-03-12T08:03:05.361Z,62.76
2023-03-12T08:04:05.252Z,63.23
2023-03-12T08:05:05.144Z,63.05
2023-03-12T08:06:05.241Z,63.36
2023-03-12T08:07:07.287Z,62.97
2023-03-12T08:08:05.057Z,63.43
2023-03-12T08:09:05.044Z,63.66
2023-03-12T08:10:05.100Z,62.71
2023-03-12T08:11:05.046Z,62.92
2023-03-12T08:12:05.032Z,62.33
2023-03-12T08:13:05.081Z,62.37
2023-03-12T08:14:05.033Z,62.44
2023-03-12T08:15:04.991Z,62.90
2023-03-12T08:16:05.340Z,63.14
2023-03-12T08:17:04.977Z,62.98
2023-03-12T08:18:04.960Z,62.72
2023-03-12T08:19:04.955Z,62.73
2023-03-12T08:20:04.945Z,62.83
2023-03-12T08:21:04.956Z,62.94
2023-03-12T08:22:04.926Z,63.12
2023-03-12T08:23:04.921Z,62.95
2023-03-12T08:24:04.912Z,63.39
2023-03-12T08:25:04.926Z,63.72
2023-03-12T08:26:04.901Z,63.42
2023-03-12T08:27:04.890Z,63.68
2023-03-12T08:28:04.868Z,64.22
2023-03-12T08:29:04.858Z,63.56
2023-03-12T08:30:04.861Z,63.31
2023-03-12T08:31:04.856Z,63.13
2023-03-12T08:32:05.762Z,63.17
2023-03-12T08:33:05.850Z,62.99
2023-03-12T08:34:04.822Z,63.56
2023-03-12T08:35:04.811Z,63.54
2023-03-12T08:36:04.836Z,63.69
2023-03-12T08:37:04.798Z,63.74
2023-03-12T08:38:04.796Z,63.15
2023-03-12T08:39:04.775Z,63.27
2023-03-12T08:40:04.944Z,63.29
2023-03-12T08:41:04.775Z,64.27
2023-03-12T08:42:04.748Z,64.94
2023-03-12T08:43:04.739Z,64.39
2023-03-12T08:44:04.737Z,63.58
2023-03-12T08:45:04.739Z,63.72
2023-03-12T08:46:04.866Z,64.33
2023-03-12T08:47:04.733Z,64.78
2023-03-12T08:48:05.703Z,64.94
2023-03-12T08:49:04.702Z,65.26
2023-03-12T08:50:04.688Z,64.15
2023-03-12T08:51:04.686Z,64.44
2023-03-12T08:52:04.673Z,64.56
2023-03-12T08:53:04.678Z,63.92
2023-03-12T08:54:04.651Z,63.35
2023-03-12T08:55:04.663Z,63.64
2023-03-12T08:56:04.649Z,64.16
2023-03-12T08:57:04.630Z,64.07
2023-03-12T08:58:04.620Z,64.13
2023-03-12T08:59:04.613Z,64.57
2023-03-12T09:00:04.601Z,64.36
2023-03-12T09:01:04.601Z,64.76
2023-03-12T09:02:04.583Z,64.07
2023-03-12T09:03:04.625Z,64.07
2023-03-12T09:04:04.684Z,64.23
2023-03-12T09:05:04.558Z,64.77
2023-03-12T09:06:04.561Z,64.65
2023-03-12T09:07:04.591Z,64.90
2023-03-12T09:08:04.536Z,64.09
2023-03-12T09:09:04.531Z,63.96
2023-03-12T09:10:04.516Z,64.61
2023-03-12T09:11:04.522Z,64.88
2023-03-12T09:12:04.505Z,64.38
2023-03-12T09:13:04.491Z,64.11
2023-03-12T09:15:06.479Z,64.72
2023-03-12T09:16:04.479Z,63.99
2023-03-12T09:17:04.462Z,64.02
2023-03-12T09:18:04.457Z,64.39
2023-03-12T09:19:04.442Z,64.51
2023-03-12T09:20:04.428Z,65.01
2023-03-12T09:21:04.435Z,64.45
2023-03-12T09:22:04.416Z,64.24
2023-03-12T09:23:06.184Z,64.21
2023-03-12T09:24:04.393Z,64.35
2023-03-12T09:25:04.388Z,64.51
2023-03-12T09:26:04.389Z,64.34
2023-03-12T09:27:04.412Z,64.59
2023-03-12T09:28:04.354Z,63.81
2023-03-12T09:29:04.353Z,63.59
2023-03-12T09:30:04.343Z,63.56
2023-03-12T09:31:04.428Z,63.59
2023-03-12T09:32:05.926Z,63.46
2023-03-12T09:33:05.320Z,63.39
2023-03-12T09:34:04.345Z,63.37
2023-03-12T09:35:04.300Z,63.56
2023-03-12T09:36:04.353Z,63.80
2023-03-12T09:37:04.280Z,63.75
2023-03-12T09:38:04.267Z,63.57
2023-03-12T09:39:04.263Z,63.22
2023-03-12T09:40:04.251Z,63.25
2023-03-12T09:41:04.250Z,63.02
2023-03-12T09:42:04.233Z,63.10
2023-03-12T09:43:04.224Z,63.05
2023-03-12T09:44:04.212Z,62.98
2023-03-12T09:45:04.204Z,63.05
2023-03-12T09:46:04.229Z,63.20
2023-03-12T09:47:04.185Z,62.91
2023-03-12T09:48:04.184Z,62.96
2023-03-12T09:49:04.171Z,62.99
2023-03-12T09:50:04.157Z,62.90
2023-03-12T09:51:04.159Z,63.23
2023-03-12T09:52:04.140Z,62.92
2023-03-12T09:53:04.134Z,62.98
2023-03-12T09:54:04.127Z,63.59
2023-03-12T09:55:04.118Z,63.08
2023-03-12T09:56:04.122Z,62.44
2023-03-12T09:57:04.118Z,62.62
2023-03-12T09:58:04.095Z,62.47
2023-03-12T09:59:04.087Z,62.41
2023-03-12T10:00:04.082Z,62.43
2023-03-12T10:01:04.081Z,62.28
2023-03-12T10:02:04.066Z,62.41
2023-03-12T10:03:04.146Z,62.37
2023-03-12T10:04:04.048Z,62.15
2023-03-12T10:05:04.076Z,62.30
2023-03-12T10:06:05.083Z,62.37
2023-03-12T10:07:04.024Z,62.42
2023-03-12T10:08:17.460Z,62.42
2023-03-12T10:09:06.002Z,62.43
2023-03-12T10:10:04.009Z,62.48
2023-03-12T10:11:03.994Z,62.51
2023-03-12T10:12:03.976Z,62.37
2023-03-12T10:13:03.968Z,62.32
2023-03-12T10:14:03.989Z,62.14
2023-03-12T10:15:03.944Z,62.01
2023-03-12T10:16:03.998Z,61.93
2023-03-12T10:17:03.925Z,61.98
2023-03-12T10:18:04.061Z,62.32
2023-03-12T10:19:04.020Z,62.07
2023-03-12T10:20:03.905Z,61.73
2023-03-12T10:21:03.904Z,62.21
2023-03-12T10:22:03.883Z,61.83
2023-03-12T10:23:03.889Z,62.10
2023-03-12T10:24:03.868Z,61.56
2023-03-12T10:25:03.861Z,61.53
2023-03-12T10:26:03.867Z,61.73
2023-03-12T10:27:03.848Z,62.05
2023-03-12T10:28:03.837Z,61.30
2023-03-12T10:29:03.819Z,61.19
2023-03-12T10:30:03.822Z,61.60
2023-03-12T10:31:03.850Z,61.23
2023-03-12T10:32:03.800Z,61.78
2023-03-12T10:33:03.798Z,62.37
2023-03-12T10:34:03.781Z,62.41
2023-03-12T10:35:03.773Z,62.34
2023-03-12T10:36:03.806Z,62.10
2023-03-12T10:37:03.764Z,61.93
2023-03-12T10:38:03.751Z,62.23
2023-03-12T10:39:03.746Z,62.20
2023-03-12T10:40:03.747Z,62.28
2023-03-12T10:41:03.725Z,62.25
2023-03-12T10:42:03.720Z,62.38
2023-03-12T10:43:03.705Z,62.19
2023-03-12T10:44:03.690Z,62.39
2023-03-12T10:45:04.689Z,62.29
2023-03-12T10:46:03.703Z,61.93
2023-03-12T10:47:03.710Z,62.25
2023-03-12T10:48:03.669Z,62.12
2023-03-12T10:49:03.656Z,61.70
2023-03-12T10:50:03.640Z,61.52
2023-03-12T10:51:03.635Z,61.95
2023-03-12T10:52:35.544Z,62.33
2023-03-12T10:53:03.618Z,62.60
2023-03-12T10:54:03.611Z,62.50
2023-03-12T10:55:03.602Z,62.50
2023-03-12T10:56:03.604Z,62.61
2023-03-12T10:57:03.593Z,62.00
2023-03-12T10:58:03.577Z,62.32
2023-03-12T10:59:03.567Z,62.51
2023-03-12T11:00:03.570Z,62.12
2023-03-12T11:01:03.555Z,62.14
2023-03-12T11:02:03.625Z,62.48
2023-03-12T11:03:03.600Z,62.36
2023-03-12T11:04:03.524Z,62.09
2023-03-12T11:05:03.514Z,62.04
2023-03-12T11:06:03.538Z,61.92
2023-03-12T11:07:03.504Z,62.31
2023-03-12T11:08:03.489Z,62.09
2023-03-12T11:09:16.204Z,62.09
2023-03-12T11:10:05.480Z,62.43
2023-03-12T11:11:03.465Z,62.30
2023-03-12T11:12:03.460Z,62.43
2023-03-12T11:13:03.451Z,62.75
2023-03-12T11:14:03.441Z,62.12
2023-03-12T11:15:03.429Z,62.29
2023-03-12T11:16:03.465Z,62.20
2023-03-12T11:17:03.418Z,62.18
2023-03-12T11:18:03.396Z,61.86
2023-03-12T11:19:03.388Z,61.53
2023-03-12T11:20:03.377Z,61.98
2023-03-12T11:21:03.391Z,61.15
2023-03-12T11:22:03.392Z,61.61
2023-03-12T11:23:03.351Z,61.21
2023-03-12T11:24:03.343Z,62.03
2023-03-12T11:25:03.339Z,61.23
2023-03-12T11:26:03.321Z,61.21
2023-03-12T11:27:03.327Z,61.32
2023-03-12T11:28:03.333Z,61.39
2023-03-12T11:29:03.301Z,62.60
2023-03-12T11:30:03.285Z,63.28
2023-03-12T11:31:03.331Z,62.83
2023-03-12T11:32:03.337Z,62.98
2023-03-12T11:33:03.288Z,63.06
2023-03-12T11:34:03.253Z,63.16
2023-03-12T11:35:03.247Z,63.38
2023-03-12T11:36:03.235Z,63.32
2023-03-12T11:37:03.238Z,63.30
2023-03-12T11:38:03.226Z,63.47
2023-03-12T11:39:03.210Z,63.35
2023-03-12T11:40:03.197Z,63.41
2023-03-12T11:41:03.187Z,63.57
2023-03-12T11:42:03.190Z,63.57
2023-03-12T11:43:03.176Z,63.69
2023-03-12T11:44:03.161Z,63.46
2023-03-12T11:45:03.159Z,63.69
2023-03-12T11:46:03.151Z,63.60
2023-03-12T11:47:03.154Z,63.54
2023-03-12T11:48:03.133Z,63.61
2023-03-12T11:49:03.121Z,63.55
2023-03-12T11:50:03.130Z,63.55
2023-03-12T11:51:03.105Z,63.86
2023-03-12T11:52:03.108Z,64.01
2023-03-12T11:53:03.092Z,63.86
2023-03-12T11:54:03.076Z,63.95
2023-03-12T11:55:03.066Z,63.88
2023-03-12T11:56:03.060Z,64.11
2023-03-12T11:57:03.063Z,64.07
2023-03-12T11:58:03.047Z,63.81
2023-03-12T11:59:03.038Z,63.71
2023-03-12T12:00:03.028Z,63.72
2023-03-12T12:01:03.024Z,63.75
2023-03-12T12:02:03.044Z,63.68
2023-03-12T12:03:03.027Z,63.63
2023-03-12T12:04:02.999Z,63.71
2023-03-12T12:05:02.985Z,63.74
2023-03-12T12:06:02.973Z,63.65
2023-03-12T12:07:02.977Z,63.80
2023-03-12T12:08:02.962Z,63.84
2023-03-12T12:09:02.950Z,63.76
2023-03-12T12:10:02.940Z,63.73
2023-03-12T12:11:02.931Z,63.67
2023-03-12T12:12:05.470Z,63.62
2023-03-12T12:13:03.916Z,63.76
2023-03-12T12:14:02.908Z,63.55
2023-03-12T12:15:02.898Z,63.51
2023-03-12T12:16:02.912Z,63.85
2023-03-12T12:17:02.897Z,63.84
2023-03-12T12:18:02.891Z,63.58
2023-03-12T12:19:04.540Z,63.88
2023-03-12T12:20:03.851Z,63.62
2023-03-12T12:21:02.845Z,63.51
2023-03-12T12:22:02.840Z,63.74
2023-03-12T12:23:02.832Z,63.83
2023-03-12T12:24:02.810Z,63.71
2023-03-12T12:25:02.803Z,63.67
2023-03-12T12:26:02.799Z,63.63
2023-03-12T12:27:02.798Z,63.56
2023-03-12T12:28:02.782Z,63.66
2023-03-12T12:29:02.770Z,63.47
2023-03-12T12:30:02.760Z,63.45
2023-03-12T12:31:02.752Z,63.14
2023-03-12T12:32:02.765Z,63.26
2023-03-12T12:33:02.744Z,63.18
2023-03-12T12:34:02.733Z,63.25
2023-03-12T12:35:02.718Z,63.22
2023-03-12T12:36:02.780Z,63.18
2023-03-12T12:37:02.708Z,63.27
2023-03-12T12:38:02.709Z,63.07
2023-03-12T12:39:02.681Z,63.11
2023-03-12T12:40:02.685Z,62.98
2023-03-12T12:41:02.663Z,62.97
2023-03-12T12:42:02.669Z,62.74
2023-03-12T12:43:02.658Z,62.74
2023-03-12T12:44:02.645Z,62.59
2023-03-12T12:45:02.636Z,62.37
2023-03-12T12:46:02.701Z,62.07
2023-03-12T12:47:02.663Z,62.27
2023-03-12T12:48:02.614Z,62.16
2023-03-12T12:49:02.603Z,62.28
2023-03-12T12:50:02.599Z,62.18
2023-03-12T12:51:02.581Z,61.99
2023-03-12T12:52:02.580Z,62.09
2023-03-12T12:53:02.570Z,62.37